createdAt,value
2022-10-09T00:01:15.944Z,94.65
2022-10-09T00:03:46.537Z,94.44
2022-10-09T00:06:18.417Z,94.29
2022-10-09T00:08:46.600Z,95.43
2022-10-09T00:11:16.607Z,94.97
2022-10-09T00:13:45.032Z,95.19
2022-10-09T00:16:14.813Z,95.43
2022-10-09T00:18:43.278Z,96.24
2022-10-09T00:21:20.262Z,96.38
2022-10-09T00:23:49.027Z,96.95
2022-10-09T00:26:17.365Z,96.45
2022-10-09T00:28:46.031Z,96.40
2022-10-09T00:31:14.605Z,95.76
2022-10-09T00:33:42.507Z,96.03
2022-10-09T00:36:13.314Z,95.86
2022-10-09T00:38:42.864Z,95.95
2022-10-09T00:41:15.998Z,96.42
2022-10-09T00:43:47.712Z,96.62
2022-10-09T00:46:25.537Z,96.28
2022-10-09T00:49:01.500Z,95.98
2022-10-09T00:51:30.862Z,96.22
2022-10-09T00:54:00.744Z,96.85
2022-10-09T00:56:29.175Z,96.05
2022-10-09T00:58:58.812Z,96.30
2022-10-09T01:01:26.725Z,96.37
2022-10-09T01:03:54.585Z,96.40
2022-10-09T01:06:33.737Z,96.50
2022-10-09T01:09:08.969Z,97.47
2022-10-09T01:11:46.296Z,97.41
2022-10-09T01:14:22.631Z,97.37
2022-10-09T01:16:57.827Z,96.86
2022-10-09T01:19:51.117Z,96.62
2022-10-09T01:22:33.822Z,97.05
2022-10-09T01:25:08.785Z,97.35
2022-10-09T01:27:39.078Z,96.60
2022-10-09T01:30:09.532Z,96.33
2022-10-09T01:32:40.922Z,96.75
2022-10-09T01:35:12.076Z,96.53
2022-10-09T01:37:41.551Z,96.11
2022-10-09T01:40:11.610Z,96.16
2022-10-09T01:42:41.479Z,95.56
2022-10-09T01:45:10.499Z,96.24
2022-10-09T01:47:38.925Z,96.41
2022-10-09T01:50:16.532Z,96.07
2022-10-09T01:52:50.039Z,95.89
2022-10-09T01:55:37.343Z,96.97
2022-10-09T01:58:11.903Z,96.80
2022-10-09T02:00:45.182Z,96.17
2022-10-09T02:03:16.398Z,96.67
2022-10-09T02:05:47.149Z,97.30
2022-10-09T02:08:18.369Z,96.43
2022-10-09T02:10:48.899Z,96.96
2022-10-09T02:13:19.064Z,96.40
2022-10-09T02:15:51.393Z,96.11
2022-10-09T02:18:34.891Z,96.21
2022-10-09T02:21:10.927Z,95.83
2022-10-09T02:23:41.109Z,96.88
2022-10-09T02:26:10.111Z,97.32
2022-10-09T02:28:43.806Z,97.00
2022-10-09T02:31:18.742Z,96.98
2022-10-09T02:33:46.534Z,97.75
2022-10-09T02:36:14.707Z,96.76
2022-10-09T02:38:42.466Z,97.27
2022-10-09T02:41:10.329Z,97.74
2022-10-09T02:43:39.623Z,97.42
2022-10-09T02:46:07.623Z,98.12
2022-10-09T02:48:35.548Z,98.37
2022-10-09T02:51:03.419Z,97.67
2022-10-09T02:53:31.531Z,98.19
2022-10-09T02:55:59.584Z,98.88
2022-10-09T02:58:27.848Z,99.51
2022-10-09T03:00:57.044Z,99.31
2022-10-09T03:03:25.283Z,98.73
2022-10-09T03:06:02.107Z,98.92
2022-10-09T03:08:30.061Z,99.23
2022-10-09T03:10:58.038Z,98.38
2022-10-09T03:13:25.832Z,98.29
2022-10-09T03:15:54.139Z,99.08
2022-10-09T03:18:23.393Z,98.58
2022-10-09T03:20:51.287Z,97.97
2022-10-09T03:23:19.089Z,98.25
2022-10-09T03:25:56.587Z,97.46
2022-10-09T03:28:24.642Z,98.10
2022-10-09T03:30:54.090Z,98.03
2022-10-09T03:33:23.602Z,98.03
2022-10-09T03:35:51.499Z,97.24
2022-10-09T03:38:19.524Z,98.32
2022-10-09T03:40:47.371Z,98.23
2022-10-09T03:43:15.153Z,99.09
2022-10-09T03:45:43.995Z,98.72
2022-10-09T03:48:13.042Z,98.04
2022-10-09T03:50:43.006Z,98.17
2022-10-09T03:53:15.626Z,98.69
2022-10-09T03:55:44.420Z,98.77
2022-10-09T03:58:12.209Z,98.75
2022-10-09T04:00:40.222Z,98.72
2022-10-09T04:03:08.594Z,98.63
2022-10-09T04:05:36.507Z,98.16
2022-10-09T04:08:05.763Z,98.30
2022-10-09T04:10:34.327Z,99.01
2022-10-09T04:13:02.089Z,98.68
2022-10-09T04:15:29.949Z,98.62
2022-10-09T04:17:57.758Z,98.39
2022-10-09T04:20:25.623Z,97.76
2022-10-09T04:22:53.385Z,98.48
2022-10-09T04:25:22.612Z,97.96
2022-10-09T04:27:50.576Z,98.07
2022-10-09T04:30:18.371Z,98.48
2022-10-09T04:32:48.202Z,98.79
2022-10-09T04:35:16.728Z,98.62
2022-10-09T04:37:44.575Z,99.03
2022-10-09T04:40:12.514Z,99.11
2022-10-09T04:42:41.652Z,98.95
2022-10-09T04:45:11.019Z,99.38
2022-10-09T04:47:39.061Z,99.55
2022-10-09T04:50:08.218Z,99.58
2022-10-09T04:52:36.201Z,99.50
2022-10-09T04:55:04.038Z,99.57
2022-10-09T04:57:32.129Z,98.79
2022-10-09T05:00:01.353Z,98.63
2022-10-09T05:02:29.137Z,99.15
2022-10-09T05:04:57.360Z,99.04
2022-10-09T05:07:25.467Z,98.81
2022-10-09T05:09:53.296Z,99.06
2022-10-09T05:12:21.081Z,98.86
2022-10-09T05:14:49.015Z,98.43
2022-10-09T05:17:22.191Z,98.72
2022-10-09T05:19:51.179Z,99.03
2022-10-09T05:22:20.298Z,99.08
2022-10-09T05:24:48.179Z,98.42
2022-10-09T05:27:16.123Z,98.60
2022-10-09T05:29:43.992Z,98.45
2022-10-09T05:32:11.920Z,98.90
2022-10-09T05:34:41.164Z,98.63
2022-10-09T05:37:09.032Z,98.27
2022-10-09T05:39:38.334Z,98.15
2022-10-09T05:42:06.862Z,97.87
2022-10-09T05:44:34.656Z,97.82
2022-10-09T05:47:02.500Z,97.65
2022-10-09T05:49:30.383Z,98.29
2022-10-09T05:51:59.687Z,97.89
2022-10-09T05:54:27.647Z,98.67
2022-10-09T05:56:55.518Z,97.79
2022-10-09T05:59:23.527Z,97.97
2022-10-09T06:01:53.527Z,97.78
2022-10-09T06:04:23.276Z,97.45
2022-10-09T06:06:51.667Z,96.72
2022-10-09T06:09:23.097Z,96.38
2022-10-09T06:11:52.613Z,96.73
2022-10-09T06:14:21.943Z,96.57
2022-10-09T06:16:50.472Z,96.51
2022-10-09T06:19:19.936Z,95.73
2022-10-09T06:21:49.054Z,95.73
2022-10-09T06:24:26.945Z,96.21
2022-10-09T06:26:55.923Z,95.93
2022-10-09T06:29:24.028Z,95.23
2022-10-09T06:31:52.035Z,94.65
2022-10-09T06:34:20.169Z,93.96
2022-10-09T06:36:48.086Z,95.06
2022-10-09T06:39:16.451Z,94.28
2022-10-09T06:41:45.940Z,94.29
2022-10-09T06:44:17.189Z,94.25
2022-10-09T06:46:46.614Z,94.24
2022-10-09T06:49:14.454Z,93.47
2022-10-09T06:51:42.322Z,94.16
2022-10-09T06:54:12.744Z,93.59
2022-10-09T06:56:40.923Z,94.27
2022-10-09T06:59:11.985Z,94.95
2022-10-09T07:01:39.936Z,96.13
2022-10-09T07:04:10.717Z,93.88
2022-10-09T07:06:40.968Z,92.31
2022-10-09T07:09:11.120Z,91.51
2022-10-09T07:11:40.802Z,91.59
2022-10-09T07:14:11.513Z,91.33
2022-10-09T07:16:40.793Z,90.18
2022-10-09T07:19:11.228Z,88.91
2022-10-09T07:21:40.945Z,88.84
2022-10-09T07:24:09.797Z,88.74
2022-10-09T07:26:40.051Z,87.92
2022-10-09T07:29:11.071Z,88.64
2022-10-09T07:31:38.964Z,88.49
2022-10-09T07:34:07.014Z,87.78
2022-10-09T07:36:35.310Z,88.18
2022-10-09T07:39:04.435Z,88.31
2022-10-09T07:41:32.300Z,87.62
2022-10-09T07:44:00.105Z,88.03
2022-10-09T07:46:33.675Z,87.77
2022-10-09T07:49:02.296Z,87.16
2022-10-09T07:51:31.191Z,86.36
2022-10-09T07:54:00.223Z,86.16
2022-10-09T07:56:30.381Z,85.58
2022-10-09T07:58:59.837Z,84.89
2022-10-09T08:01:30.651Z,84.91
2022-10-09T08:04:00.511Z,84.97
2022-10-09T08:06:29.248Z,84.68
2022-10-09T08:08:59.926Z,84.90
2022-10-09T08:11:29.804Z,84.95
2022-10-09T08:13:58.096Z,83.75
2022-10-09T08:16:28.431Z,84.05
2022-10-09T08:18:59.950Z,83.55
2022-10-09T08:21:29.034Z,82.86
2022-10-09T08:23:59.042Z,82.47
2022-10-09T08:26:29.200Z,83.09
2022-10-09T08:28:58.642Z,82.58
2022-10-09T08:31:28.657Z,82.23
2022-10-09T08:34:00.204Z,81.70
2022-10-09T08:36:28.628Z,81.98
2022-10-09T08:38:56.827Z,81.42
2022-10-09T08:41:40.715Z,82.42
2022-10-09T08:44:15.068Z,80.95
2022-10-09T08:46:51.243Z,80.33
2022-10-09T08:49:26.187Z,81.03
2022-10-09T08:51:57.079Z,80.11
2022-10-09T08:54:32.617Z,79.37
2022-10-09T08:57:04.114Z,79.14
2022-10-09T08:59:32.721Z,79.24
2022-10-09T09:02:09.837Z,78.68
2022-10-09T09:04:56.541Z,78.32
2022-10-09T09:07:33.009Z,77.65
2022-10-09T09:10:06.600Z,78.14
2022-10-09T09:12:47.552Z,76.95
2022-10-09T09:15:29.662Z,76.30
2022-10-09T09:18:07.484Z,76.05
2022-10-09T09:20:47.143Z,75.96
2022-10-09T09:23:17.407Z,75.52
2022-10-09T09:25:46.777Z,74.33
2022-10-09T09:28:21.997Z,74.40
2022-10-09T09:30:55.854Z,73.80
2022-10-09T09:33:35.783Z,73.10
2022-10-09T09:36:13.491Z,73.60
2022-10-09T09:39:11.022Z,73.90
2022-10-09T09:41:29.350Z,73.15
2022-10-09T09:43:57.149Z,71.50
2022-10-09T09:46:30.106Z,71.30
2022-10-09T09:48:58.037Z,71.00
2022-10-09T09:51:30.266Z,70.74
2022-10-09T09:54:00.102Z,69.99
2022-10-09T09:56:59.888Z,70.28
2022-10-09T09:59:30.889Z,69.78
2022-10-09T10:02:03.620Z,67.97
2022-10-09T10:04:31.533Z,68.09
2022-10-09T10:07:00.791Z,67.58
2022-10-09T10:09:28.598Z,67.03
2022-10-09T10:11:59.417Z,67.53
2022-10-09T10:14:28.324Z,67.32
2022-10-09T10:16:58.195Z,66.72
2022-10-09T10:19:28.151Z,65.46
2022-10-09T10:22:02.739Z,65.04
2022-10-09T10:24:35.211Z,64.80
2022-10-09T10:27:08.109Z,64.15
2022-10-09T10:29:40.370Z,63.41
2022-10-09T10:32:16.907Z,63.44
2022-10-09T10:34:48.238Z,62.77
2022-10-09T10:37:29.475Z,62.19
2022-10-09T10:40:03.122Z,62.21
2022-10-09T10:42:43.463Z,61.43
2022-10-09T10:45:17.530Z,61.23
2022-10-09T10:47:51.525Z,60.86
2022-10-09T10:50:21.640Z,60.72
2022-10-09T10:53:03.010Z,61.11
2022-10-09T10:55:43.170Z,60.72
2022-10-09T10:58:25.721Z,60.50
2022-10-09T11:01:07.613Z,59.61
2022-10-09T11:03:56.558Z,59.27
2022-10-09T11:06:35.565Z,58.26
2022-10-09T11:09:17.903Z,57.93
2022-10-09T11:11:51.120Z,57.73
2022-10-09T11:14:36.308Z,56.83
2022-10-09T11:17:17.015Z,55.87
2022-10-09T11:20:04.601Z,55.74
2022-10-09T11:22:49.181Z,56.13
2022-10-09T11:25:30.737Z,55.59
2022-10-09T11:28:03.626Z,56.67
2022-10-09T11:30:39.272Z,57.23
2022-10-09T11:33:30.287Z,57.09
2022-10-09T11:36:04.063Z,57.37
2022-10-09T11:38:37.708Z,57.06
2022-10-09T11:41:07.809Z,56.88
2022-10-09T11:43:55.649Z,56.79
2022-10-09T11:46:35.793Z,55.42
2022-10-09T11:49:13.340Z,56.53
2022-10-09T11:51:48.938Z,55.87
2022-10-09T11:54:19.516Z,55.74
2022-10-09T11:56:56.957Z,54.53
2022-10-09T11:59:29.880Z,54.95
2022-10-09T12:01:59.292Z,55.11
2022-10-09T12:04:59.532Z,54.99
2022-10-09T12:07:29.286Z,54.78
2022-10-09T12:10:03.755Z,54.54
2022-10-09T12:12:33.998Z,54.87
2022-10-09T12:15:13.088Z,55.71
2022-10-09T12:17:49.794Z,55.40
2022-10-09T12:20:21.399Z,54.77
2022-10-09T12:23:21.304Z,55.07
2022-10-09T12:25:45.943Z,55.56
2022-10-09T12:28:26.882Z,53.62
2022-10-09T12:30:56.475Z,53.18
2022-10-09T12:33:28.627Z,53.49
2022-10-09T12:36:03.637Z,53.05
2022-10-09T12:38:33.785Z,53.19
2022-10-09T12:41:04.111Z,52.51
2022-10-09T12:43:34.120Z,52.39
2022-10-09T12:46:02.490Z,52.42
2022-10-09T12:48:41.733Z,53.08
2022-10-09T12:51:17.548Z,50.86
2022-10-09T12:53:49.938Z,50.52
2022-10-09T12:56:23.638Z,50.67
2022-10-09T12:58:54.384Z,49.47
2022-10-09T13:01:23.178Z,49.30
2022-10-09T13:03:56.193Z,49.84
2022-10-09T13:06:27.165Z,49.18
2022-10-09T13:08:57.884Z,49.09
2022-10-09T13:11:33.979Z,48.87
2022-10-09T13:14:03.403Z,49.25
2022-10-09T13:16:41.135Z,49.27
2022-10-09T13:19:23.891Z,48.71
2022-10-09T13:22:18.960Z,49.11
2022-10-09T13:24:47.416Z,48.38
2022-10-09T13:27:15.602Z,47.32
2022-10-09T13:29:45.004Z,48.40
2022-10-09T13:32:14.127Z,47.21
2022-10-09T13:34:41.961Z,47.27
2022-10-09T13:37:13.938Z,47.28
2022-10-09T13:39:41.841Z,47.58
2022-10-09T13:42:12.948Z,46.42
2022-10-09T13:44:40.847Z,46.95
2022-10-09T13:47:10.954Z,47.24
2022-10-09T13:49:38.839Z,47.32
2022-10-09T13:52:07.266Z,46.75
2022-10-09T13:54:35.109Z,47.67
2022-10-09T13:57:03.185Z,47.13
2022-10-09T13:59:32.364Z,45.82
2022-10-09T14:02:00.896Z,45.56
2022-10-09T14:04:31.449Z,45.91
2022-10-09T14:06:59.303Z,45.50
2022-10-09T14:09:27.186Z,45.53
2022-10-09T14:11:55.043Z,44.76
2022-10-09T14:14:23.464Z,44.98
2022-10-09T14:16:51.780Z,44.93
2022-10-09T14:19:19.911Z,45.19
2022-10-09T14:21:49.373Z,44.75
2022-10-09T14:24:19.425Z,45.24
2022-10-09T14:26:51.465Z,46.26
2022-10-09T14:29:19.742Z,45.71
2022-10-09T14:31:50.034Z,45.51
2022-10-09T14:34:18.462Z,44.97
2022-10-09T14:36:46.367Z,45.03
2022-10-09T14:39:15.736Z,45.80
2022-10-09T14:41:43.614Z,45.44
2022-10-09T14:44:11.537Z,45.18
2022-10-09T14:46:39.756Z,44.62
2022-10-09T14:49:09.125Z,45.51
2022-10-09T14:51:38.870Z,46.10
2022-10-09T14:54:08.138Z,46.79
2022-10-09T14:56:37.463Z,45.97
2022-10-09T14:59:06.396Z,46.22
2022-10-09T15:01:35.634Z,46.00
2022-10-09T15:04:04.799Z,43.79
2022-10-09T15:06:33.141Z,37.82
2022-10-09T15:09:05.372Z,33.14
2022-10-09T15:11:34.626Z,30.28
2022-10-09T15:14:06.248Z,30.04
2022-10-09T15:16:34.735Z,27.95
2022-10-09T15:19:03.147Z,27.33
2022-10-09T15:21:32.584Z,24.85
2022-10-09T15:24:02.764Z,24.68
2022-10-09T15:26:33.436Z,23.53
2022-10-09T15:29:04.988Z,24.79
2022-10-09T15:31:34.529Z,26.95
2022-10-09T15:34:03.371Z,27.09
2022-10-09T15:36:34.275Z,26.60
2022-10-09T15:39:05.643Z,27.24
2022-10-09T15:41:35.569Z,29.75
2022-10-09T15:44:07.341Z,33.04
2022-10-09T15:46:35.611Z,33.71
2022-10-09T15:49:03.718Z,35.88
2022-10-09T15:51:33.136Z,38.45
2022-10-09T15:54:01.709Z,40.51
2022-10-09T15:56:30.254Z,42.48
2022-10-09T15:58:59.592Z,43.75
2022-10-09T16:01:28.936Z,44.46
2022-10-09T16:03:56.872Z,46.11
2022-10-09T16:06:24.943Z,46.70
2022-10-09T16:08:56.403Z,47.14
2022-10-09T16:11:26.406Z,47.96
2022-10-09T16:13:56.084Z,48.36
2022-10-09T16:16:26.126Z,48.31
2022-10-09T16:18:56.171Z,49.10
2022-10-09T16:21:26.527Z,49.14
2022-10-09T16:23:58.812Z,50.28
2022-10-09T16:26:29.874Z,50.71
2022-10-09T16:28:58.467Z,51.46
2022-10-09T16:31:28.202Z,51.97
2022-10-09T16:33:57.806Z,52.88
2022-10-09T16:36:25.867Z,53.31
2022-10-09T16:38:53.991Z,54.24
2022-10-09T16:41:27.841Z,55.99
2022-10-09T16:44:13.886Z,56.32
2022-10-09T16:46:42.749Z,57.39
2022-10-09T16:49:21.277Z,58.78
2022-10-09T16:51:52.358Z,59.30
2022-10-09T16:54:20.339Z,61.03
2022-10-09T16:56:48.591Z,61.45
2022-10-09T16:59:16.716Z,61.78
2022-10-09T17:01:46.456Z,62.15
2022-10-09T17:04:16.747Z,63.18
2022-10-09T17:06:46.559Z,62.98
2022-10-09T17:09:14.930Z,65.36
2022-10-09T17:11:43.410Z,65.11
2022-10-09T17:14:11.550Z,67.46
2022-10-09T17:16:41.065Z,66.19
2022-10-09T17:19:09.665Z,66.64
2022-10-09T17:21:39.090Z,68.26
2022-10-09T17:24:07.549Z,67.02
2022-10-09T17:26:36.569Z,68.13
2022-10-09T17:29:05.712Z,68.22
2022-10-09T17:31:34.194Z,67.67
2022-10-09T17:34:04.967Z,69.75
2022-10-09T17:36:35.818Z,72.56
2022-10-09T17:39:12.335Z,71.88
2022-10-09T17:41:40.827Z,70.65
2022-10-09T17:44:09.625Z,72.10
2022-10-09T17:46:37.604Z,70.80
2022-10-09T17:49:05.712Z,71.25
2022-10-09T17:51:36.152Z,70.65
2022-10-09T17:54:10.937Z,69.27
2022-10-09T17:56:41.128Z,70.56
2022-10-09T17:59:09.790Z,71.14
2022-10-09T18:01:38.603Z,72.26
2022-10-09T18:04:06.618Z,72.61
2022-10-09T18:06:35.842Z,74.42
2022-10-09T18:09:05.883Z,74.83
2022-10-09T18:11:33.877Z,74.50
2022-10-09T18:14:01.888Z,75.44
2022-10-09T18:16:35.895Z,75.74
2022-10-09T18:19:06.261Z,76.36
2022-10-09T18:21:35.227Z,75.62
2022-10-09T18:24:03.556Z,77.33
2022-10-09T18:26:33.044Z,78.95
2022-10-09T18:29:01.564Z,79.13
2022-10-09T18:31:30.217Z,79.84
2022-10-09T18:33:59.729Z,79.19
2022-10-09T18:36:31.905Z,80.51
2022-10-09T18:39:02.426Z,79.77
2022-10-09T18:41:32.203Z,79.61
2022-10-09T18:44:02.927Z,79.59
2022-10-09T18:46:36.995Z,78.90
2022-10-09T18:49:09.637Z,78.29
2022-10-09T18:51:40.366Z,79.15
2022-10-09T18:54:13.244Z,79.27
2022-10-09T18:56:45.918Z,80.04
2022-10-09T18:59:17.727Z,79.90
2022-10-09T19:01:50.077Z,81.08
2022-10-09T19:04:19.358Z,81.56
2022-10-09T19:06:48.883Z,81.97
2022-10-09T19:09:23.661Z,81.70
2022-10-09T19:11:55.035Z,81.68
2022-10-09T19:14:25.802Z,81.92
2022-10-09T19:16:54.907Z,82.77
2022-10-09T19:19:22.781Z,83.41
2022-10-09T19:21:51.100Z,83.58
2022-10-09T19:24:20.244Z,84.17
2022-10-09T19:26:51.901Z,84.54
2022-10-09T19:29:32.412Z,84.89
2022-10-09T19:32:01.380Z,84.65
2022-10-09T19:34:30.911Z,85.02
2022-10-09T19:36:59.308Z,85.29
2022-10-09T19:39:27.897Z,85.48
2022-10-09T19:41:56.100Z,85.93
2022-10-09T19:44:25.705Z,86.20
2022-10-09T19:46:54.032Z,86.61
2022-10-09T19:49:22.912Z,86.98
2022-10-09T19:51:51.413Z,87.35
2022-10-09T19:54:20.811Z,87.85
2022-10-09T19:56:48.744Z,88.35
2022-10-09T19:59:16.792Z,88.46
2022-10-09T20:01:48.596Z,88.57
2022-10-09T20:04:16.498Z,88.83
2022-10-09T20:06:44.752Z,88.90
2022-10-09T20:09:14.856Z,88.88
2022-10-09T20:11:43.598Z,88.57
2022-10-09T20:14:13.461Z,88.44
2022-10-09T20:16:41.372Z,88.93
2022-10-09T20:19:11.316Z,89.79
2022-10-09T20:21:39.807Z,90.15
2022-10-09T20:24:08.684Z,89.78
2022-10-09T20:26:39.780Z,89.52
2022-10-09T20:29:10.841Z,90.05
2022-10-09T20:31:38.746Z,89.76
2022-10-09T20:34:06.656Z,89.93
2022-10-09T20:36:39.008Z,89.72
2022-10-09T20:39:09.267Z,89.31
2022-10-09T20:41:37.612Z,88.50
2022-10-09T20:44:07.290Z,88.05
2022-10-09T20:46:37.829Z,87.64
2022-10-09T20:49:07.769Z,87.94
2022-10-09T20:51:37.779Z,87.73
2022-10-09T20:54:07.421Z,87.85
2022-10-09T20:56:35.626Z,88.26
2022-10-09T20:59:04.633Z,88.20
2022-10-09T21:01:32.836Z,88.92
2022-10-09T21:04:03.006Z,88.49
2022-10-09T21:06:36.902Z,89.01
2022-10-09T21:09:06.950Z,88.87
2022-10-09T21:11:36.530Z,89.96
2022-10-09T21:14:04.801Z,90.32
2022-10-09T21:16:32.800Z,90.07
2022-10-09T21:19:02.430Z,89.38
2022-10-09T21:21:31.499Z,89.59
2022-10-09T21:24:00.535Z,89.52
2022-10-09T21:26:31.371Z,89.00
2022-10-09T21:29:00.204Z,89.79
2022-10-09T21:31:30.678Z,90.18
2022-10-09T21:34:00.170Z,89.99
2022-10-09T21:36:35.358Z,90.30
2022-10-09T21:39:04.098Z,90.45
2022-10-09T21:41:33.952Z,90.87
2022-10-09T21:44:02.432Z,90.38
2022-10-09T21:46:30.881Z,90.44
2022-10-09T21:48:59.430Z,91.04
2022-10-09T21:51:27.850Z,90.96
2022-10-09T21:53:55.881Z,90.94
2022-10-09T21:56:24.268Z,91.85
2022-10-09T21:58:53.695Z,92.13
2022-10-09T22:01:21.507Z,91.20
2022-10-09T22:03:49.390Z,91.42
2022-10-09T22:06:19.108Z,91.53
2022-10-09T22:08:47.852Z,91.76
2022-10-09T22:11:16.446Z,92.12
2022-10-09T22:13:44.756Z,92.72
2022-10-09T22:16:16.503Z,91.46
2022-10-09T22:18:44.893Z,92.04
2022-10-09T22:21:14.953Z,92.28
2022-10-09T22:23:43.579Z,91.42
2022-10-09T22:26:14.485Z,91.21
2022-10-09T22:28:42.572Z,91.56
2022-10-09T22:31:14.714Z,91.34
2022-10-09T22:33:43.473Z,91.35
2022-10-09T22:36:13.578Z,91.30
2022-10-09T22:38:42.593Z,92.16
2022-10-09T22:41:12.561Z,91.87
2022-10-09T22:43:41.878Z,92.52
2022-10-09T22:46:12.178Z,92.52
2022-10-09T22:48:42.740Z,92.36
2022-10-09T22:51:13.430Z,91.92
2022-10-09T22:53:41.845Z,91.70
2022-10-09T22:56:12.791Z,92.66
2022-10-09T22:58:41.905Z,92.55
2022-10-09T23:01:12.347Z,92.53
2022-10-09T23:03:42.329Z,92.46
2022-10-09T23:06:12.425Z,91.76
2022-10-09T23:08:42.478Z,92.99
2022-10-09T23:11:12.763Z,93.23
2022-10-09T23:13:41.382Z,92.77
2022-10-09T23:16:11.540Z,92.74
2022-10-09T23:18:42.277Z,92.78
2022-10-09T23:21:13.620Z,92.70
2022-10-09T23:23:42.227Z,93.08
2022-10-09T23:26:12.774Z,92.84
2022-10-09T23:28:41.803Z,92.90
2022-10-09T23:31:12.410Z,92.77
2022-10-09T23:33:43.548Z,92.67
2022-10-09T23:36:14.367Z,92.91
2022-10-09T23:38:42.487Z,92.12
2022-10-09T23:41:13.624Z,92.17
2022-10-09T23:43:42.469Z,91.67
2022-10-09T23:46:13.765Z,91.17
2022-10-09T23:48:43.383Z,92.06
2022-10-09T23:51:11.922Z,92.24
2022-10-09T23:53:39.720Z,92.63
2022-10-09T23:56:15.531Z,92.54
2022-10-09T23:58:43.318Z,92.75
